Blackstone, Illinois
Current Conditions -  °F | °C
As of 5:35 PM on Sunday 21 Dec 2014 (Local Time) from KPNT Reporting Station
Overcast Overcast  
Wind Chill: 29°   Ceiling: 2300
Heat Index: 36°   Visibility: 10mi
Dew Point: 32°   Wind: 8mph
Humidity: 87%   Direction: 140°SE
Pressure: 30.09"   Gusts: NA
Location:  41.08°N, 88.69°W
Report Text: KPNT 212335Z AUTO 14007KT 10SM OVC023 02/00 A3009 RMK AO2 T00200000
Loading
Personal Weather Stations






























Interactive Weather Map New forecast layout! Learn more

10-Day Weather Forecast

Advertisements
Track Severe Weather on mobile